sensor_id;sensor_type;location;lat;lon;timestamp;P1;durP1;ratioP1;P2;durP2;ratioP2
71562;SDS011;59391;52.504;13.438;2022-10-16T00:03:38;5.60;;;3.30;;
71562;SDS011;59391;52.504;13.438;2022-10-16T00:06:05;6.68;;;3.38;;
71562;SDS011;59391;52.504;13.438;2022-10-16T00:08:34;7.05;;;4.00;;
71562;SDS011;59391;52.504;13.438;2022-10-16T00:11:02;8.00;;;3.67;;
71562;SDS011;59391;52.504;13.438;2022-10-16T00:13:34;4.90;;;3.40;;
71562;SDS011;59391;52.504;13.438;2022-10-16T00:16:03;5.63;;;3.63;;
71562;SDS011;59391;52.504;13.438;2022-10-16T00:18:29;6.65;;;3.88;;
71562;SDS011;59391;52.504;13.438;2022-10-16T00:23:44;5.20;;;3.70;;
71562;SDS011;59391;52.504;13.438;2022-10-16T00:26:17;5.68;;;3.40;;
71562;SDS011;59391;52.504;13.438;2022-10-16T00:29:09;5.33;;;3.67;;
71562;SDS011;59391;52.504;13.438;2022-10-16T00:31:34;5.85;;;3.55;;
71562;SDS011;59391;52.504;13.438;2022-10-16T00:34:03;5.63;;;3.88;;
71562;SDS011;59391;52.504;13.438;2022-10-16T00:36:29;6.03;;;3.28;;
71562;SDS011;59391;52.504;13.438;2022-10-16T00:38:56;5.70;;;3.67;;
71562;SDS011;59391;52.504;13.438;2022-10-16T00:41:25;5.65;;;3.50;;
71562;SDS011;59391;52.504;13.438;2022-10-16T00:43:53;5.15;;;3.70;;
71562;SDS011;59391;52.504;13.438;2022-10-16T00:49:03;6.10;;;3.72;;
71562;SDS011;59391;52.504;13.438;2022-10-16T00:51:49;5.57;;;3.70;;
71562;SDS011;59391;52.504;13.438;2022-10-16T00:54:22;4.63;;;3.15;;
71562;SDS011;59391;52.504;13.438;2022-10-16T00:56:51;6.93;;;3.70;;
71562;SDS011;59391;52.504;13.438;2022-10-16T00:59:22;6.07;;;3.58;;
71562;SDS011;59391;52.504;13.438;2022-10-16T01:01:52;5.03;;;3.15;;
71562;SDS011;59391;52.504;13.438;2022-10-16T01:04:19;4.97;;;3.03;;
71562;SDS011;59391;52.504;13.438;2022-10-16T01:06:57;5.05;;;3.38;;
71562;SDS011;59391;52.504;13.438;2022-10-16T01:09:59;6.82;;;3.10;;
71562;SDS011;59391;52.504;13.438;2022-10-16T01:12:40;5.13;;;3.17;;
71562;SDS011;59391;52.504;13.438;2022-10-16T01:15:22;4.55;;;3.08;;
71562;SDS011;59391;52.504;13.438;2022-10-16T01:18:20;4.72;;;3.25;;
71562;SDS011;59391;52.504;13.438;2022-10-16T01:20:54;4.57;;;3.00;;
71562;SDS011;59391;52.504;13.438;2022-10-16T01:26:36;6.72;;;3.60;;
71562;SDS011;59391;52.504;13.438;2022-10-16T01:29:34;5.72;;;3.53;;
71562;SDS011;59391;52.504;13.438;2022-10-16T01:34:58;5.32;;;3.67;;
71562;SDS011;59391;52.504;13.438;2022-10-16T01:38:08;6.82;;;4.05;;
71562;SDS011;59391;52.504;13.438;2022-10-16T01:40:44;4.68;;;3.15;;
71562;SDS011;59391;52.504;13.438;2022-10-16T01:43:24;5.63;;;3.30;;
71562;SDS011;59391;52.504;13.438;2022-10-16T01:45:56;6.00;;;2.95;;
71562;SDS011;59391;52.504;13.438;2022-10-16T01:48:24;4.65;;;3.25;;
71562;SDS011;59391;52.504;13.438;2022-10-16T01:51:06;4.60;;;3.38;;
71562;SDS011;59391;52.504;13.438;2022-10-16T01:53:37;5.82;;;3.08;;
71562;SDS011;59391;52.504;13.438;2022-10-16T01:56:06;5.05;;;3.30;;
71562;SDS011;59391;52.504;13.438;2022-10-16T01:58:38;6.43;;;3.70;;
71562;SDS011;59391;52.504;13.438;2022-10-16T02:01:11;5.07;;;3.05;;
71562;SDS011;59391;52.504;13.438;2022-10-16T02:03:41;5.20;;;3.30;;
71562;SDS011;59391;52.504;13.438;2022-10-16T02:06:11;4.22;;;3.17;;
71562;SDS011;59391;52.504;13.438;2022-10-16T02:08:37;4.85;;;2.78;;
71562;SDS011;59391;52.504;13.438;2022-10-16T02:11:05;4.72;;;3.13;;
71562;SDS011;59391;52.504;13.438;2022-10-16T02:13:39;4.50;;;3.10;;
71562;SDS011;59391;52.504;13.438;2022-10-16T02:16:20;4.18;;;2.92;;
71562;SDS011;59391;52.504;13.438;2022-10-16T02:18:56;5.07;;;3.30;;
71562;SDS011;59391;52.504;13.438;2022-10-16T02:21:23;4.95;;;2.70;;
71562;SDS011;59391;52.504;13.438;2022-10-16T02:24:03;5.70;;;2.90;;
71562;SDS011;59391;52.504;13.438;2022-10-16T02:26:57;4.32;;;2.83;;
71562;SDS011;59391;52.504;13.438;2022-10-16T02:29:36;5.32;;;2.83;;
71562;SDS011;59391;52.504;13.438;2022-10-16T02:32:10;4.90;;;2.90;;
71562;SDS011;59391;52.504;13.438;2022-10-16T02:34:41;3.92;;;2.50;;
71562;SDS011;59391;52.504;13.438;2022-10-16T02:37:08;5.05;;;3.17;;
71562;SDS011;59391;52.504;13.438;2022-10-16T02:39:35;5.10;;;3.03;;
71562;SDS011;59391;52.504;13.438;2022-10-16T02:42:02;4.40;;;3.00;;
71562;SDS011;59391;52.504;13.438;2022-10-16T02:44:28;4.43;;;2.78;;
71562;SDS011;59391;52.504;13.438;2022-10-16T02:46:54;6.10;;;4.80;;
71562;SDS011;59391;52.504;13.438;2022-10-16T02:49:20;5.15;;;3.08;;
71562;SDS011;59391;52.504;13.438;2022-10-16T02:51:46;4.33;;;2.83;;
71562;SDS011;59391;52.504;13.438;2022-10-16T02:54:11;5.45;;;3.00;;
71562;SDS011;59391;52.504;13.438;2022-10-16T02:56:37;4.78;;;2.75;;
71562;SDS011;59391;52.504;13.438;2022-10-16T02:59:03;5.63;;;3.03;;
71562;SDS011;59391;52.504;13.438;2022-10-16T03:01:29;4.35;;;2.95;;
71562;SDS011;59391;52.504;13.438;2022-10-16T03:03:55;4.53;;;2.72;;
71562;SDS011;59391;52.504;13.438;2022-10-16T03:06:20;5.20;;;3.10;;
71562;SDS011;59391;52.504;13.438;2022-10-16T03:08:46;4.07;;;2.80;;
71562;SDS011;59391;52.504;13.438;2022-10-16T03:11:12;4.93;;;2.83;;
71562;SDS011;59391;52.504;13.438;2022-10-16T03:13:37;5.10;;;2.75;;
71562;SDS011;59391;52.504;13.438;2022-10-16T03:16:03;4.30;;;2.90;;
71562;SDS011;59391;52.504;13.438;2022-10-16T03:18:29;4.57;;;2.88;;
71562;SDS011;59391;52.504;13.438;2022-10-16T03:20:54;4.57;;;2.97;;
71562;SDS011;59391;52.504;13.438;2022-10-16T03:23:20;5.22;;;3.33;;
71562;SDS011;59391;52.504;13.438;2022-10-16T03:25:46;4.80;;;3.10;;
71562;SDS011;59391;52.504;13.438;2022-10-16T03:28:11;5.17;;;3.00;;
71562;SDS011;59391;52.504;13.438;2022-10-16T03:30:37;4.95;;;3.00;;
71562;SDS011;59391;52.504;13.438;2022-10-16T03:33:04;5.13;;;2.78;;
71562;SDS011;59391;52.504;13.438;2022-10-16T03:35:30;4.38;;;2.97;;
71562;SDS011;59391;52.504;13.438;2022-10-16T03:37:56;4.28;;;3.08;;
71562;SDS011;59391;52.504;13.438;2022-10-16T03:40:22;4.70;;;3.10;;
71562;SDS011;59391;52.504;13.438;2022-10-16T03:42:48;5.05;;;3.20;;
71562;SDS011;59391;52.504;13.438;2022-10-16T03:45:13;4.55;;;3.20;;
71562;SDS011;59391;52.504;13.438;2022-10-16T03:47:39;4.53;;;2.73;;
71562;SDS011;59391;52.504;13.438;2022-10-16T03:50:05;4.40;;;2.90;;
71562;SDS011;59391;52.504;13.438;2022-10-16T03:52:31;4.75;;;3.17;;
71562;SDS011;59391;52.504;13.438;2022-10-16T03:54:57;5.43;;;3.27;;
71562;SDS011;59391;52.504;13.438;2022-10-16T03:57:23;4.88;;;3.10;;
71562;SDS011;59391;52.504;13.438;2022-10-16T03:59:49;4.65;;;2.92;;
71562;SDS011;59391;52.504;13.438;2022-10-16T04:02:15;5.18;;;2.92;;
71562;SDS011;59391;52.504;13.438;2022-10-16T04:04:41;4.72;;;3.22;;
71562;SDS011;59391;52.504;13.438;2022-10-16T04:07:07;4.30;;;2.95;;
71562;SDS011;59391;52.504;13.438;2022-10-16T04:09:32;5.30;;;3.22;;
71562;SDS011;59391;52.504;13.438;2022-10-16T04:11:58;4.60;;;3.13;;
71562;SDS011;59391;52.504;13.438;2022-10-16T04:14:24;5.20;;;3.50;;
71562;SDS011;59391;52.504;13.438;2022-10-16T04:16:49;5.00;;;3.37;;
71562;SDS011;59391;52.504;13.438;2022-10-16T04:19:15;5.00;;;3.33;;
71562;SDS011;59391;52.504;13.438;2022-10-16T04:21:41;5.50;;;3.60;;
71562;SDS011;59391;52.504;13.438;2022-10-16T04:24:06;4.68;;;3.13;;
71562;SDS011;59391;52.504;13.438;2022-10-16T04:26:32;5.93;;;3.20;;
71562;SDS011;59391;52.504;13.438;2022-10-16T04:28:58;5.25;;;3.20;;
71562;SDS011;59391;52.504;13.438;2022-10-16T04:31:23;4.83;;;3.20;;
71562;SDS011;59391;52.504;13.438;2022-10-16T04:33:49;4.87;;;3.50;;
71562;SDS011;59391;52.504;13.438;2022-10-16T04:36:14;5.18;;;3.10;;
71562;SDS011;59391;52.504;13.438;2022-10-16T04:38:40;5.13;;;3.10;;
71562;SDS011;59391;52.504;13.438;2022-10-16T04:41:06;6.43;;;2.70;;
71562;SDS011;59391;52.504;13.438;2022-10-16T04:43:33;5.17;;;2.87;;
71562;SDS011;59391;52.504;13.438;2022-10-16T04:45:59;5.20;;;3.25;;
71562;SDS011;59391;52.504;13.438;2022-10-16T04:48:25;6.22;;;3.42;;
71562;SDS011;59391;52.504;13.438;2022-10-16T04:50:50;5.10;;;3.20;;
71562;SDS011;59391;52.504;13.438;2022-10-16T04:53:16;7.55;;;3.58;;
71562;SDS011;59391;52.504;13.438;2022-10-16T04:55:42;5.45;;;3.10;;
71562;SDS011;59391;52.504;13.438;2022-10-16T04:58:08;4.80;;;3.28;;
71562;SDS011;59391;52.504;13.438;2022-10-16T05:00:34;5.75;;;3.75;;
71562;SDS011;59391;52.504;13.438;2022-10-16T05:03:00;5.38;;;3.65;;
71562;SDS011;59391;52.504;13.438;2022-10-16T05:05:30;7.43;;;3.50;;
71562;SDS011;59391;52.504;13.438;2022-10-16T05:07:56;5.72;;;3.55;;
71562;SDS011;59391;52.504;13.438;2022-10-16T05:10:22;6.00;;;3.90;;
71562;SDS011;59391;52.504;13.438;2022-10-16T05:12:47;6.32;;;4.00;;
71562;SDS011;59391;52.504;13.438;2022-10-16T05:15:13;6.20;;;3.60;;
71562;SDS011;59391;52.504;13.438;2022-10-16T05:17:39;5.35;;;3.53;;
71562;SDS011;59391;52.504;13.438;2022-10-16T05:20:04;6.23;;;4.10;;
71562;SDS011;59391;52.504;13.438;2022-10-16T05:22:31;6.13;;;3.65;;
71562;SDS011;59391;52.504;13.438;2022-10-16T05:24:56;8.07;;;3.77;;
71562;SDS011;59391;52.504;13.438;2022-10-16T05:27:22;6.20;;;4.00;;
71562;SDS011;59391;52.504;13.438;2022-10-16T05:29:48;5.90;;;3.70;;
71562;SDS011;59391;52.504;13.438;2022-10-16T05:32:14;6.43;;;4.07;;
71562;SDS011;59391;52.504;13.438;2022-10-16T05:34:41;6.60;;;4.53;;
71562;SDS011;59391;52.504;13.438;2022-10-16T05:37:08;7.22;;;4.20;;
71562;SDS011;59391;52.504;13.438;2022-10-16T05:39:34;6.22;;;4.65;;
71562;SDS011;59391;52.504;13.438;2022-10-16T05:41:59;8.00;;;4.20;;
71562;SDS011;59391;52.504;13.438;2022-10-16T05:44:25;5.90;;;4.37;;
71562;SDS011;59391;52.504;13.438;2022-10-16T05:46:50;6.00;;;4.10;;
71562;SDS011;59391;52.504;13.438;2022-10-16T05:49:16;5.53;;;3.70;;
71562;SDS011;59391;52.504;13.438;2022-10-16T05:51:42;8.47;;;4.10;;
71562;SDS011;59391;52.504;13.438;2022-10-16T05:54:07;10.85;;;5.55;;
71562;SDS011;59391;52.504;13.438;2022-10-16T05:56:33;8.07;;;5.13;;
71562;SDS011;59391;52.504;13.438;2022-10-16T05:58:59;12.80;;;6.93;;
71562;SDS011;59391;52.504;13.438;2022-10-16T06:01:25;7.30;;;4.27;;
71562;SDS011;59391;52.504;13.438;2022-10-16T06:03:51;6.40;;;4.18;;
71562;SDS011;59391;52.504;13.438;2022-10-16T06:06:21;12.57;;;6.95;;
71562;SDS011;59391;52.504;13.438;2022-10-16T06:08:50;8.15;;;5.05;;
71562;SDS011;59391;52.504;13.438;2022-10-16T06:11:21;8.93;;;5.50;;
71562;SDS011;59391;52.504;13.438;2022-10-16T06:13:51;8.13;;;4.82;;
71562;SDS011;59391;52.504;13.438;2022-10-16T06:16:19;18.70;;;9.80;;
71562;SDS011;59391;52.504;13.438;2022-10-16T06:18:45;11.98;;;6.68;;
71562;SDS011;59391;52.504;13.438;2022-10-16T06:21:16;18.63;;;7.88;;
71562;SDS011;59391;52.504;13.438;2022-10-16T06:23:49;20.23;;;9.10;;
71562;SDS011;59391;52.504;13.438;2022-10-16T06:26:17;34.55;;;14.20;;
71562;SDS011;59391;52.504;13.438;2022-10-16T06:28:46;14.45;;;7.70;;
71562;SDS011;59391;52.504;13.438;2022-10-16T06:31:12;27.60;;;12.30;;
71562;SDS011;59391;52.504;13.438;2022-10-16T06:33:39;30.15;;;13.07;;
71562;SDS011;59391;52.504;13.438;2022-10-16T06:36:06;17.38;;;8.05;;
71562;SDS011;59391;52.504;13.438;2022-10-16T06:38:41;9.63;;;5.20;;
71562;SDS011;59391;52.504;13.438;2022-10-16T06:41:09;16.77;;;8.82;;
71562;SDS011;59391;52.504;13.438;2022-10-16T06:43:38;46.78;;;21.90;;
71562;SDS011;59391;52.504;13.438;2022-10-16T06:46:05;26.07;;;13.03;;
71562;SDS011;59391;52.504;13.438;2022-10-16T06:48:34;14.60;;;6.88;;
71562;SDS011;59391;52.504;13.438;2022-10-16T06:51:10;10.40;;;5.63;;
71562;SDS011;59391;52.504;13.438;2022-10-16T06:53:39;10.07;;;6.05;;
71562;SDS011;59391;52.504;13.438;2022-10-16T06:56:10;6.88;;;4.53;;
71562;SDS011;59391;52.504;13.438;2022-10-16T06:58:42;8.53;;;5.03;;
71562;SDS011;59391;52.504;13.438;2022-10-16T07:01:09;7.25;;;4.72;;
71562;SDS011;59391;52.504;13.438;2022-10-16T07:03:37;6.07;;;4.03;;
71562;SDS011;59391;52.504;13.438;2022-10-16T07:06:07;6.00;;;3.88;;
71562;SDS011;59391;52.504;13.438;2022-10-16T07:08:36;6.28;;;3.88;;
71562;SDS011;59391;52.504;13.438;2022-10-16T07:11:05;5.90;;;3.47;;
71562;SDS011;59391;52.504;13.438;2022-10-16T07:13:37;6.15;;;3.60;;
71562;SDS011;59391;52.504;13.438;2022-10-16T07:18:40;5.60;;;3.78;;
71562;SDS011;59391;52.504;13.438;2022-10-16T07:21:11;5.93;;;3.60;;
71562;SDS011;59391;52.504;13.438;2022-10-16T07:23:41;6.17;;;3.30;;
71562;SDS011;59391;52.504;13.438;2022-10-16T07:26:07;28.20;;;15.35;;
71562;SDS011;59391;52.504;13.438;2022-10-16T07:28:34;8.10;;;4.57;;
71562;SDS011;59391;52.504;13.438;2022-10-16T07:31:02;6.97;;;3.90;;
71562;SDS011;59391;52.504;13.438;2022-10-16T07:33:35;6.63;;;4.15;;
71562;SDS011;59391;52.504;13.438;2022-10-16T07:36:01;10.35;;;6.50;;
71562;SDS011;59391;52.504;13.438;2022-10-16T07:38:27;6.10;;;4.30;;
71562;SDS011;59391;52.504;13.438;2022-10-16T07:40:57;9.27;;;5.50;;
71562;SDS011;59391;52.504;13.438;2022-10-16T07:46:51;5.88;;;3.50;;
71562;SDS011;59391;52.504;13.438;2022-10-16T07:49:19;4.87;;;3.10;;
71562;SDS011;59391;52.504;13.438;2022-10-16T07:51:46;6.22;;;3.90;;
71562;SDS011;59391;52.504;13.438;2022-10-16T07:54:12;5.78;;;3.30;;
71562;SDS011;59391;52.504;13.438;2022-10-16T07:56:38;8.88;;;4.47;;
71562;SDS011;59391;52.504;13.438;2022-10-16T07:59:13;5.10;;;3.50;;
71562;SDS011;59391;52.504;13.438;2022-10-16T08:01:38;6.13;;;4.07;;
71562;SDS011;59391;52.504;13.438;2022-10-16T08:04:07;5.63;;;3.60;;
71562;SDS011;59391;52.504;13.438;2022-10-16T08:06:38;5.82;;;3.63;;
71562;SDS011;59391;52.504;13.438;2022-10-16T08:09:06;4.32;;;2.75;;
71562;SDS011;59391;52.504;13.438;2022-10-16T08:11:35;4.55;;;3.00;;
71562;SDS011;59391;52.504;13.438;2022-10-16T08:14:00;4.77;;;2.80;;
71562;SDS011;59391;52.504;13.438;2022-10-16T08:16:29;5.35;;;2.60;;
71562;SDS011;59391;52.504;13.438;2022-10-16T08:18:55;4.20;;;2.97;;
71562;SDS011;59391;52.504;13.438;2022-10-16T08:21:21;4.47;;;2.63;;
71562;SDS011;59391;52.504;13.438;2022-10-16T08:23:48;4.45;;;2.70;;
71562;SDS011;59391;52.504;13.438;2022-10-16T08:26:15;4.18;;;2.70;;
71562;SDS011;59391;52.504;13.438;2022-10-16T08:28:49;4.07;;;2.58;;
71562;SDS011;59391;52.504;13.438;2022-10-16T08:31:16;6.72;;;2.90;;
71562;SDS011;59391;52.504;13.438;2022-10-16T08:33:42;4.10;;;2.47;;
71562;SDS011;59391;52.504;13.438;2022-10-16T08:36:11;4.97;;;2.63;;
71562;SDS011;59391;52.504;13.438;2022-10-16T08:38:38;4.03;;;2.58;;
71562;SDS011;59391;52.504;13.438;2022-10-16T08:47:35;4.85;;;2.72;;
71562;SDS011;59391;52.504;13.438;2022-10-16T08:50:42;4.70;;;2.47;;
71562;SDS011;59391;52.504;13.438;2022-10-16T08:53:11;4.97;;;2.50;;
71562;SDS011;59391;52.504;13.438;2022-10-16T08:55:46;4.15;;;2.50;;
71562;SDS011;59391;52.504;13.438;2022-10-16T08:58:18;4.57;;;2.70;;
71562;SDS011;59391;52.504;13.438;2022-10-16T09:00:58;4.10;;;2.55;;
71562;SDS011;59391;52.504;13.438;2022-10-16T09:23:35;3.97;;;2.37;;
71562;SDS011;59391;52.504;13.438;2022-10-16T09:26:05;4.88;;;2.38;;
71562;SDS011;59391;52.504;13.438;2022-10-16T09:28:38;4.00;;;2.13;;
71562;SDS011;59391;52.504;13.438;2022-10-16T09:31:04;6.00;;;2.53;;
71562;SDS011;59391;52.504;13.438;2022-10-16T09:33:33;3.80;;;2.20;;
71562;SDS011;59391;52.504;13.438;2022-10-16T09:36:08;4.28;;;2.60;;
71562;SDS011;59391;52.504;13.438;2022-10-16T09:38:36;4.63;;;2.40;;
71562;SDS011;59391;52.504;13.438;2022-10-16T09:41:03;4.27;;;2.50;;
71562;SDS011;59391;52.504;13.438;2022-10-16T09:46:24;3.58;;;2.38;;
71562;SDS011;59391;52.504;13.438;2022-10-16T09:49:03;4.20;;;2.60;;
71562;SDS011;59391;52.504;13.438;2022-10-16T09:51:43;4.40;;;2.80;;
71562;SDS011;59391;52.504;13.438;2022-10-16T09:56:35;3.70;;;2.17;;
71562;SDS011;59391;52.504;13.438;2022-10-16T09:59:17;4.73;;;2.20;;
71562;SDS011;59391;52.504;13.438;2022-10-16T10:01:55;4.03;;;2.45;;
71562;SDS011;59391;52.504;13.438;2022-10-16T10:04:43;4.45;;;2.45;;
71562;SDS011;59391;52.504;13.438;2022-10-16T10:07:31;4.20;;;2.55;;
71562;SDS011;59391;52.504;13.438;2022-10-16T10:10:20;4.45;;;2.50;;
71562;SDS011;59391;52.504;13.438;2022-10-16T10:12:49;3.40;;;2.00;;
71562;SDS011;59391;52.504;13.438;2022-10-16T10:15:18;4.68;;;2.13;;
71562;SDS011;59391;52.504;13.438;2022-10-16T10:18:32;4.35;;;2.25;;
71562;SDS011;59391;52.504;13.438;2022-10-16T10:20:56;4.25;;;2.30;;
71562;SDS011;59391;52.504;13.438;2022-10-16T10:23:25;3.65;;;2.15;;
71562;SDS011;59391;52.504;13.438;2022-10-16T10:31:48;3.97;;;2.30;;
71562;SDS011;59391;52.504;13.438;2022-10-16T10:34:59;5.40;;;3.00;;
71562;SDS011;59391;52.504;13.438;2022-10-16T10:37:48;6.43;;;3.50;;
71562;SDS011;59391;52.504;13.438;2022-10-16T10:40:48;4.23;;;2.67;;
71562;SDS011;59391;52.504;13.438;2022-10-16T10:52:31;4.18;;;2.25;;
71562;SDS011;59391;52.504;13.438;2022-10-16T11:07:19;4.38;;;2.15;;
71562;SDS011;59391;52.504;13.438;2022-10-16T11:10:02;3.43;;;1.80;;
71562;SDS011;59391;52.504;13.438;2022-10-16T11:12:59;3.63;;;2.00;;
71562;SDS011;59391;52.504;13.438;2022-10-16T11:15:44;3.40;;;1.95;;
71562;SDS011;59391;52.504;13.438;2022-10-16T11:18:19;3.97;;;2.15;;
71562;SDS011;59391;52.504;13.438;2022-10-16T11:21:07;5.63;;;2.15;;
71562;SDS011;59391;52.504;13.438;2022-10-16T11:23:53;3.70;;;1.80;;
71562;SDS011;59391;52.504;13.438;2022-10-16T11:26:46;6.78;;;2.70;;
71562;SDS011;59391;52.504;13.438;2022-10-16T11:29:25;5.25;;;2.33;;
71562;SDS011;59391;52.504;13.438;2022-10-16T11:32:11;4.65;;;2.28;;
71562;SDS011;59391;52.504;13.438;2022-10-16T11:34:55;5.57;;;2.03;;
71562;SDS011;59391;52.504;13.438;2022-10-16T11:37:33;4.23;;;2.00;;
71562;SDS011;59391;52.504;13.438;2022-10-16T11:40:42;4.75;;;2.03;;
71562;SDS011;59391;52.504;13.438;2022-10-16T11:43:13;4.35;;;1.98;;
71562;SDS011;59391;52.504;13.438;2022-10-16T11:45:50;4.32;;;1.90;;
71562;SDS011;59391;52.504;13.438;2022-10-16T11:48:27;4.90;;;2.33;;
71562;SDS011;59391;52.504;13.438;2022-10-16T11:54:08;4.28;;;1.83;;
71562;SDS011;59391;52.504;13.438;2022-10-16T11:56:51;4.10;;;1.92;;
71562;SDS011;59391;52.504;13.438;2022-10-16T12:02:56;4.28;;;2.00;;
71562;SDS011;59391;52.504;13.438;2022-10-16T12:08:59;4.72;;;2.03;;
71562;SDS011;59391;52.504;13.438;2022-10-16T12:16:53;3.10;;;1.58;;
71562;SDS011;59391;52.504;13.438;2022-10-16T12:19:31;3.60;;;1.60;;
71562;SDS011;59391;52.504;13.438;2022-10-16T12:21:58;4.10;;;1.90;;
71562;SDS011;59391;52.504;13.438;2022-10-16T12:24:31;3.20;;;1.80;;
71562;SDS011;59391;52.504;13.438;2022-10-16T12:27:24;4.20;;;1.98;;
71562;SDS011;59391;52.504;13.438;2022-10-16T12:29:59;3.60;;;1.88;;
71562;SDS011;59391;52.504;13.438;2022-10-16T12:32:34;4.07;;;2.20;;
71562;SDS011;59391;52.504;13.438;2022-10-16T12:35:04;5.78;;;2.92;;
71562;SDS011;59391;52.504;13.438;2022-10-16T12:41:25;3.95;;;1.73;;
71562;SDS011;59391;52.504;13.438;2022-10-16T12:43:54;5.28;;;2.67;;
71562;SDS011;59391;52.504;13.438;2022-10-16T12:51:36;4.45;;;1.90;;
71562;SDS011;59391;52.504;13.438;2022-10-16T12:54:13;3.40;;;1.73;;
71562;SDS011;59391;52.504;13.438;2022-10-16T12:56:51;4.30;;;1.90;;
71562;SDS011;59391;52.504;13.438;2022-10-16T12:59:58;8.40;;;4.50;;
71562;SDS011;59391;52.504;13.438;2022-10-16T13:08:44;3.67;;;1.80;;
71562;SDS011;59391;52.504;13.438;2022-10-16T13:14:48;4.10;;;1.70;;
71562;SDS011;59391;52.504;13.438;2022-10-16T13:20:28;3.67;;;1.60;;
71562;SDS011;59391;52.504;13.438;2022-10-16T13:23:13;3.42;;;1.60;;
71562;SDS011;59391;52.504;13.438;2022-10-16T13:26:09;3.40;;;1.65;;
71562;SDS011;59391;52.504;13.438;2022-10-16T13:28:44;3.23;;;1.40;;
71562;SDS011;59391;52.504;13.438;2022-10-16T13:31:27;4.22;;;1.50;;
71562;SDS011;59391;52.504;13.438;2022-10-16T13:33:56;3.30;;;1.40;;
71562;SDS011;59391;52.504;13.438;2022-10-16T13:36:25;3.47;;;1.70;;
71562;SDS011;59391;52.504;13.438;2022-10-16T13:39:00;4.28;;;1.67;;
71562;SDS011;59391;52.504;13.438;2022-10-16T13:41:38;3.77;;;1.80;;
71562;SDS011;59391;52.504;13.438;2022-10-16T13:44:03;3.80;;;1.40;;
71562;SDS011;59391;52.504;13.438;2022-10-16T13:46:30;3.75;;;1.60;;
71562;SDS011;59391;52.504;13.438;2022-10-16T13:49:17;3.25;;;1.60;;
71562;SDS011;59391;52.504;13.438;2022-10-16T13:51:54;4.30;;;1.63;;
71562;SDS011;59391;52.504;13.438;2022-10-16T13:54:27;5.00;;;1.70;;
71562;SDS011;59391;52.504;13.438;2022-10-16T13:56:55;5.25;;;1.70;;
71562;SDS011;59391;52.504;13.438;2022-10-16T13:59:25;3.37;;;1.80;;
71562;SDS011;59391;52.504;13.438;2022-10-16T14:01:58;3.92;;;1.70;;
71562;SDS011;59391;52.504;13.438;2022-10-16T14:04:31;3.63;;;1.55;;
71562;SDS011;59391;52.504;13.438;2022-10-16T14:06:58;4.20;;;1.70;;
71562;SDS011;59391;52.504;13.438;2022-10-16T14:09:25;4.13;;;1.77;;
71562;SDS011;59391;52.504;13.438;2022-10-16T14:11:55;4.30;;;2.00;;
71562;SDS011;59391;52.504;13.438;2022-10-16T14:14:33;4.40;;;2.17;;
71562;SDS011;59391;52.504;13.438;2022-10-16T14:17:18;4.13;;;1.70;;
71562;SDS011;59391;52.504;13.438;2022-10-16T14:19:52;4.88;;;2.67;;
71562;SDS011;59391;52.504;13.438;2022-10-16T14:22:32;5.10;;;2.47;;
71562;SDS011;59391;52.504;13.438;2022-10-16T14:30:57;5.60;;;1.80;;
71562;SDS011;59391;52.504;13.438;2022-10-16T14:38:35;4.75;;;2.83;;
71562;SDS011;59391;52.504;13.438;2022-10-16T14:41:04;5.97;;;3.05;;
71562;SDS011;59391;52.504;13.438;2022-10-16T14:43:34;5.03;;;2.72;;
71562;SDS011;59391;52.504;13.438;2022-10-16T14:46:09;4.68;;;2.33;;
71562;SDS011;59391;52.504;13.438;2022-10-16T14:48:41;8.23;;;1.90;;
71562;SDS011;59391;52.504;13.438;2022-10-16T14:51:17;3.67;;;1.50;;
71562;SDS011;59391;52.504;13.438;2022-10-16T14:53:43;6.00;;;2.58;;
71562;SDS011;59391;52.504;13.438;2022-10-16T14:56:14;4.57;;;1.80;;
71562;SDS011;59391;52.504;13.438;2022-10-16T14:58:57;4.55;;;2.85;;
71562;SDS011;59391;52.504;13.438;2022-10-16T15:01:23;8.23;;;3.80;;
71562;SDS011;59391;52.504;13.438;2022-10-16T15:03:49;5.60;;;2.60;;
71562;SDS011;59391;52.504;13.438;2022-10-16T15:06:17;4.82;;;2.80;;
71562;SDS011;59391;52.504;13.438;2022-10-16T15:08:43;4.30;;;2.10;;
71562;SDS011;59391;52.504;13.438;2022-10-16T15:11:10;5.22;;;2.10;;
71562;SDS011;59391;52.504;13.438;2022-10-16T15:13:40;3.60;;;1.90;;
71562;SDS011;59391;52.504;13.438;2022-10-16T15:16:15;4.30;;;2.03;;
71562;SDS011;59391;52.504;13.438;2022-10-16T15:18:42;4.32;;;2.40;;
71562;SDS011;59391;52.504;13.438;2022-10-16T15:21:08;4.25;;;1.90;;
71562;SDS011;59391;52.504;13.438;2022-10-16T15:23:57;3.60;;;1.92;;
71562;SDS011;59391;52.504;13.438;2022-10-16T15:26:28;4.18;;;2.08;;
71562;SDS011;59391;52.504;13.438;2022-10-16T15:28:54;4.63;;;2.10;;
71562;SDS011;59391;52.504;13.438;2022-10-16T15:31:21;5.55;;;2.35;;
71562;SDS011;59391;52.504;13.438;2022-10-16T15:33:54;5.03;;;2.38;;
71562;SDS011;59391;52.504;13.438;2022-10-16T15:36:26;5.60;;;2.63;;
71562;SDS011;59391;52.504;13.438;2022-10-16T15:39:01;7.63;;;3.83;;
71562;SDS011;59391;52.504;13.438;2022-10-16T15:41:41;6.53;;;3.10;;
71562;SDS011;59391;52.504;13.438;2022-10-16T15:44:08;6.47;;;3.13;;
71562;SDS011;59391;52.504;13.438;2022-10-16T15:46:33;6.13;;;3.28;;
71562;SDS011;59391;52.504;13.438;2022-10-16T15:49:00;5.90;;;3.10;;
71562;SDS011;59391;52.504;13.438;2022-10-16T15:51:26;7.15;;;3.90;;
71562;SDS011;59391;52.504;13.438;2022-10-16T15:53:54;6.63;;;3.65;;
71562;SDS011;59391;52.504;13.438;2022-10-16T15:56:21;8.73;;;3.90;;
71562;SDS011;59391;52.504;13.438;2022-10-16T15:58:50;15.10;;;6.37;;
71562;SDS011;59391;52.504;13.438;2022-10-16T16:01:23;10.88;;;6.18;;
71562;SDS011;59391;52.504;13.438;2022-10-16T16:03:52;11.95;;;6.78;;
71562;SDS011;59391;52.504;13.438;2022-10-16T16:06:19;14.48;;;7.78;;
71562;SDS011;59391;52.504;13.438;2022-10-16T16:08:45;10.68;;;5.57;;
71562;SDS011;59391;52.504;13.438;2022-10-16T16:11:12;8.47;;;4.93;;
71562;SDS011;59391;52.504;13.438;2022-10-16T16:13:44;8.95;;;4.88;;
71562;SDS011;59391;52.504;13.438;2022-10-16T16:16:14;8.20;;;4.35;;
71562;SDS011;59391;52.504;13.438;2022-10-16T16:18:43;8.03;;;4.43;;
71562;SDS011;59391;52.504;13.438;2022-10-16T16:21:13;11.05;;;6.53;;
71562;SDS011;59391;52.504;13.438;2022-10-16T16:23:39;12.40;;;6.97;;
71562;SDS011;59391;52.504;13.438;2022-10-16T16:26:12;13.40;;;7.82;;
71562;SDS011;59391;52.504;13.438;2022-10-16T16:28:48;9.85;;;4.80;;
71562;SDS011;59391;52.504;13.438;2022-10-16T16:31:14;9.83;;;5.20;;
71562;SDS011;59391;52.504;13.438;2022-10-16T16:33:40;9.50;;;4.97;;
71562;SDS011;59391;52.504;13.438;2022-10-16T16:36:09;8.10;;;4.70;;
71562;SDS011;59391;52.504;13.438;2022-10-16T16:38:34;10.30;;;4.47;;
71562;SDS011;59391;52.504;13.438;2022-10-16T16:41:10;7.33;;;3.93;;
71562;SDS011;59391;52.504;13.438;2022-10-16T16:43:48;9.90;;;5.40;;
71562;SDS011;59391;52.504;13.438;2022-10-16T16:46:16;10.00;;;4.72;;
71562;SDS011;59391;52.504;13.438;2022-10-16T16:48:43;12.98;;;6.35;;
71562;SDS011;59391;52.504;13.438;2022-10-16T16:51:12;8.82;;;5.05;;
71562;SDS011;59391;52.504;13.438;2022-10-16T16:53:44;6.87;;;4.70;;
71562;SDS011;59391;52.504;13.438;2022-10-16T16:56:12;11.77;;;6.20;;
71562;SDS011;59391;52.504;13.438;2022-10-16T16:58:39;11.15;;;6.60;;
71562;SDS011;59391;52.504;13.438;2022-10-16T17:01:05;12.23;;;7.25;;
71562;SDS011;59391;52.504;13.438;2022-10-16T17:03:34;13.65;;;7.40;;
71562;SDS011;59391;52.504;13.438;2022-10-16T17:06:02;10.73;;;6.47;;